OIMB  Birjand  Airport

Birjand, Iran

Add Bookmark
ICAO OIMB
Type Airport
Status Operational
Latitude
32° 53' 53" N
32.898102
Longitude
59° 15' 57" E
59.266102
Local (GMT +4.5 ) UTC
Apr 30, 2016 01:33 pm Apr 30, 2016 09:03
Sunrise-Sunset Local UTC
Begin Civil Twilight 05:18 am 00:48
Sunrise 05:44 am 01:14
Sunset 07:15 pm 14:45
End Civil Twilight 07:41 pm 15:11
VFR
VFR
MVFR
MVFR
IFR
IFR
LIFR
LIFR
Unknown
Unavailable

Current Weather

METAR Observed VFR
OIMB 300800Z 18018KT 9999 SCT040 32/M05 Q1015 Sat, Apr 30, 2016 @ 08:00 UTC
(1 Hour, 3 Minutes ago)
Visual Flight Rules
Wind Visibility Clouds Conditions
180° at 18 knots (33 kph) 10 km or more
  • Scattered at 4,000 ft AGL
  • No significant weather
Temperatures Readings Precipitation
Current Temp
32°C
90°F
Dewpoint
-5°C
23°F
Humidity 9%
Altimeter 29.97" Hg
Sea Level Pressure 1,015 mb
Field Elevation
1,491 m
4,892 ft
None Recorded
-
-

CheckWX.com is intended as a tool to help pilots better visualize weather data. It is not intended as a substitute for an official weather briefing obtained from a Flight Service Station. CheckWX.com does not meet the FAA requirements for an official pre-flight weather briefing. Therefore, it's important that pilots still call and obtain an official FSS pre-flight weather briefing.

© 2007-2016 CheckWX.com
09:03:33 UTC